Time;durP1;ratioP1;P1;durP2;ratioP2;P2;SDS_P1;SDS_P2;PMS_P1;PMS_P2;Temp;Humidity;BMP_temperature;BMP_pressure;BME280_temperature;BME280_humidity;BME280_pressure;Samples;Min_cycle;Max_cycle;Signal;HPM_P1;HPM_P2
2023/01/24 00:01:25;;;;;;;92.35;35.70;;;;;;;1.83;100.00;102526.27;1695847;84;25602;-44
2023/01/24 00:03:52;;;;;;;73.72;32.67;;;;;;;1.83;100.00;102518.27;1723762;83;25648;-46
2023/01/24 00:06:18;;;;;;;82.42;32.75;;;;;;;1.79;100.00;102523.70;1711230;83;25473;-46
2023/01/24 00:08:46;;;;;;;77.08;31.62;;;;;;;1.77;100.00;102517.70;1695813;84;27241;-46
2023/01/24 00:11:14;;;;;;;84.83;32.98;;;;;;;1.76;100.00;102525.41;1695649;84;25598;-45
2023/01/24 00:13:43;;;;;;;84.58;33.58;;;;;;;1.77;100.00;102529.71;1695768;84;25380;-45
2023/01/24 00:16:19;;;;;;;86.32;32.58;;;;;;;1.74;100.00;102518.09;1695929;84;25768;-46
2023/01/24 00:18:48;;;;;;;74.80;31.85;;;;;;;1.74;100.00;102521.60;1695851;84;25462;-45
2023/01/24 00:21:18;;;;;;;;;;;;;;;1.72;100.00;102518.80;1698321;84;27252;-44
2023/01/24 00:23:50;;;;;;;74.20;30.72;;;;;;;1.71;100.00;102519.31;1695701;84;25620;-44
2023/01/24 00:26:20;;;;;;;82.10;31.45;;;;;;;1.71;100.00;102524.66;1689747;84;25601;-44
2023/01/24 00:28:49;;;;;;;;;;;;;;;1.70;100.00;102514.17;1665691;85;25684;-44
2023/01/24 00:31:16;;;;;;;72.37;30.60;;;;;;;1.70;100.00;102519.51;1687409;85;25632;-43
2023/01/24 00:33:44;;;;;;;78.50;32.00;;;;;;;1.68;100.00;102509.84;1662832;85;27230;-43
2023/01/24 00:36:13;;;;;;;81.00;34.25;;;;;;;1.68;100.00;102509.84;1687225;85;25459;-43
2023/01/24 00:38:42;;;;;;;81.42;32.60;;;;;;;1.69;100.00;102508.02;1687438;85;25468;-44
2023/01/24 00:41:10;;;;;;;80.30;32.60;;;;;;;1.67;100.00;102511.41;1687358;85;25673;-43
2023/01/24 00:43:36;;;;;;;69.42;31.73;;;;;;;1.66;100.00;102511.89;1687340;85;25638;-45
2023/01/24 00:46:08;;;;;;;84.00;32.53;;;;;;;1.66;100.00;102511.08;1687204;85;27427;-46
2023/01/24 00:48:36;;;;;;;84.40;33.08;;;;;;;1.65;100.00;102503.59;1687259;85;25584;-47
2023/01/24 00:51:05;;;;;;;76.35;32.93;;;;;;;1.66;100.00;102511.08;1687298;85;25406;-46
2023/01/24 00:53:31;;;;;;;80.05;32.67;;;;;;;1.66;100.00;102508.41;1687436;85;25597;-43
2023/01/24 00:55:57;;;;;;;79.55;31.02;;;;;;;1.66;100.00;102513.22;1687256;85;25558;-44
2023/01/24 00:58:25;;;;;;;75.50;31.27;;;;;;;1.66;100.00;102510.55;1687299;85;27501;-46
2023/01/24 01:00:56;;;;;;;79.12;31.93;;;;;;;1.65;100.00;102508.92;1687227;85;25495;-44
2023/01/24 01:03:23;;;;;;;72.78;30.52;;;;;;;1.66;100.00;102507.07;1687329;85;25598;-43
2023/01/24 01:05:53;;;;;;;82.02;32.78;;;;;;;1.65;100.00;102510.26;1687142;85;25764;-45
2023/01/24 01:08:21;;;;;;;71.05;30.90;;;;;;;1.65;100.00;102514.27;1686284;85;25411;-42
2023/01/24 01:10:47;;;;;;;70.75;28.17;;;;;;;1.66;100.00;102512.41;1687385;85;27374;-43
2023/01/24 01:13:13;;;;;;;72.15;32.03;;;;;;;1.65;100.00;102510.26;1687202;85;32819;-44
2023/01/24 01:15:40;;;;;;;77.67;31.60;;;;;;;1.66;100.00;102508.41;1687241;85;25708;-44
2023/01/24 01:18:08;;;;;;;76.80;32.50;;;;;;;1.65;100.00;102512.92;1687232;85;25602;-46
2023/01/24 01:20:34;;;;;;;76.90;31.27;;;;;;;1.66;100.00;102516.41;1687330;85;25611;-44
2023/01/24 01:23:01;;;;;;;69.20;30.55;;;;;;;1.65;100.00;102515.59;1687240;85;29554;-44
2023/01/24 01:25:29;;;;;;;75.37;32.20;;;;;;;1.66;100.00;102516.41;1662689;85;25891;-45
2023/01/24 01:27:55;;;;;;;74.42;31.85;;;;;;;1.66;100.00;102515.08;1686058;85;25394;-43
2023/01/24 01:30:23;;;;;;;70.32;32.13;;;;;;;1.67;100.00;102518.07;1665469;85;25504;-46
2023/01/24 01:32:52;;;;;;;70.05;30.15;;;;;;;1.66;100.00;102517.22;1686049;85;25394;-44
2023/01/24 01:35:18;;;;;;;70.22;30.02;;;;;;;1.65;100.00;102515.59;1686104;85;27410;-44
2023/01/24 01:37:44;;;;;;;77.80;32.00;;;;;;;1.65;100.00;102516.08;1686004;84;25618;-44
2023/01/24 01:40:13;;;;;;;74.65;32.67;;;;;;;1.64;100.00;102515.27;1665503;85;25619;-45
2023/01/24 01:42:51;;;;;;;73.90;29.48;;;;;;;1.66;100.00;102515.08;1686154;85;25575;-43
2023/01/24 01:45:35;;;;;;;66.53;29.37;;;;;;;1.65;100.00;102516.93;1685999;85;25461;-43
2023/01/24 01:48:27;;;;;;;71.25;30.62;;;;;;;1.65;100.00;102518.27;1665487;85;27418;-47
2023/01/24 01:51:19;;;;;;;78.12;31.40;;;;;;;1.65;100.00;102515.59;1685939;85;25510;-44
2023/01/24 01:53:53;;;;;;;72.92;30.23;;;;;;;1.64;100.00;102511.78;1665861;85;25696;-44
2023/01/24 01:56:36;;;;;;;73.50;31.27;;;;;;;1.64;100.00;102517.94;1685854;84;28019;-42
2023/01/24 01:59:08;;;;;;;71.20;30.60;;;;;;;1.64;100.00;102516.60;1686173;84;25393;-43
2023/01/24 02:01:38;;;;;;;66.17;29.90;;;;;;;1.64;100.00;102517.12;1686048;85;28179;-42
2023/01/24 02:04:15;;;;;;;70.40;29.07;;;;;;;1.64;100.00;102517.94;1686059;84;25524;-47
2023/01/24 02:06:47;;;;;;;66.12;30.85;;;;;;;1.64;100.00;102511.27;1684976;84;25799;-47
2023/01/24 02:09:19;;;;;;;67.25;29.05;;;;;;;1.64;100.00;102513.12;1695266;83;26208;-48
2023/01/24 02:11:50;;;;;;;71.65;31.07;;;;;;;1.62;100.00;102515.16;1687531;85;25606;-48
2023/01/24 02:17:07;;;;;;;69.85;29.52;;;;;;;1.62;100.00;102511.16;1687479;85;25656;-47
2023/01/24 02:19:48;;;;;;;63.23;28.20;;;;;;;1.61;100.00;102509.50;1716307;83;25479;-47
2023/01/24 02:22:36;;;;;;;70.78;29.82;;;;;;;1.62;100.00;102504.49;1687535;84;25649;-47
2023/01/24 02:25:17;;;;;;;65.10;28.73;;;;;;;1.62;100.00;102499.16;1686883;84;25436;-48
2023/01/24 02:27:43;;;;;;;71.10;28.65;;;;;;;1.62;100.00;102496.48;1715596;83;27337;-48
2023/01/24 02:30:13;;;;;;;70.87;29.27;;;;;;;1.62;100.00;102489.30;1716129;83;25410;-46
2023/01/24 02:32:39;;;;;;;69.27;31.10;;;;;;;1.60;100.00;102486.01;1687540;84;25538;-44
2023/01/24 02:35:23;;;;;;;62.17;28.05;;;;;;;1.61;100.00;102482.83;1716184;83;27826;-45
2023/01/24 02:37:54;;;;;;;69.22;27.55;;;;;;;1.60;100.00;102486.01;1686933;84;25623;-43
2023/01/24 02:40:21;;;;;;;;;;;;;;;1.59;100.00;102484.34;1718805;83;27573;-44
2023/01/24 02:42:49;;;;;;;63.33;29.10;;;;;;;1.59;100.00;102488.35;1719688;83;25715;-44
2023/01/24 02:45:28;;;;;;;61.53;28.12;;;;;;;1.59;100.00;102480.34;1687454;84;25546;-46
2023/01/24 02:47:57;;;;;;;60.67;28.38;;;;;;;1.59;100.00;102484.34;1716245;83;26194;-45
2023/01/24 02:53:28;;;;;;;57.10;27.77;;;;;;;1.59;100.00;102487.02;1687671;84;25426;-44
2023/01/24 02:58:28;;;;;;;61.63;28.25;;;;;;;1.58;100.00;102491.20;1716254;83;25577;-47
2023/01/24 03:00:55;;;;;;;63.28;27.77;;;;;;;1.56;100.00;102490.06;1687452;84;25584;-46
2023/01/24 03:03:23;;;;;;;57.93;27.87;;;;;;;1.57;100.00;102486.39;1716240;83;25536;-43
2023/01/24 03:05:58;;;;;;;61.37;26.70;;;;;;;1.57;100.00;102486.39;1687499;85;27408;-47
2023/01/24 03:08:29;;;;;;;64.58;26.65;;;;;;;1.57;100.00;102492.25;1697107;83;25624;-47
2023/01/24 03:10:58;;;;;;;59.03;27.00;;;;;;;1.57;100.00;102493.06;1687581;84;25521;-42
2023/01/24 03:35:25;;;;;;;60.05;26.37;;;;;;;1.68;100.00;102499.17;1905530;74;34674;-48
2023/01/24 03:40:39;;;;;;;58.30;25.55;;;;;;;1.62;100.00;102495.16;1859911;77;27495;-44
2023/01/24 03:43:06;;;;;;;50.67;24.70;;;;;;;1.61;100.00;102500.16;1859753;76;25528;-44
2023/01/24 03:45:38;;;;;;;54.13;25.68;;;;;;;1.61;100.00;102503.64;1837741;77;25671;-44
2023/01/24 03:48:15;;;;;;;54.58;25.90;;;;;;;1.61;100.00;102506.31;1859818;76;25532;-47
2023/01/24 03:53:33;;;;;;;54.63;25.25;;;;;;;1.64;100.00;102507.78;1859801;77;27485;-46
2023/01/24 03:56:05;;;;;;;55.63;25.62;;;;;;;1.63;100.00;102497.59;1859721;77;25437;-45
2023/01/24 03:58:33;;;;;;;52.50;25.72;;;;;;;1.65;100.00;102502.74;1859859;77;25441;-47
2023/01/24 04:01:01;;;;;;;53.73;24.32;;;;;;;1.64;100.00;102507.27;1859702;76;25484;-44
2023/01/24 04:03:28;;;;;;;53.28;23.70;;;;;;;1.64;100.00;102503.78;1859806;77;25559;-44
2023/01/24 04:05:54;;;;;;;55.70;26.97;;;;;;;1.65;100.00;102512.08;1859794;77;28085;-45
2023/01/24 04:08:23;;;;;;;56.73;25.13;;;;;;;1.65;100.00;102511.59;1859660;76;30665;-47
2023/01/24 04:10:49;;;;;;;55.10;24.18;;;;;;;1.65;100.00;102514.27;1859827;77;25595;-44
2023/01/24 04:13:15;;;;;;;56.92;25.90;;;;;;;1.65;100.00;102509.41;1859864;77;25514;-48
2023/01/24 04:15:45;;;;;;;53.92;26.02;;;;;;;1.66;100.00;102512.41;1859894;76;25618;-44
2023/01/24 04:18:13;;;;;;;54.18;24.05;;;;;;;1.65;100.00;102504.08;1859754;76;27532;-44
2023/01/24 04:20:41;;;;;;;53.50;24.82;;;;;;;1.64;100.00;102510.45;1859657;76;25504;-44
2023/01/24 04:23:12;;;;;;;50.60;24.10;;;;;;;1.65;100.00;102506.26;1859746;76;25359;-46
2023/01/24 04:25:38;;;;;;;52.15;25.23;;;;;;;1.65;100.00;102509.41;1859756;77;25282;-43
2023/01/24 04:28:09;;;;;;;48.25;22.22;;;;;;;1.65;100.00;102516.08;1837022;77;25604;-42
2023/01/24 04:30:35;;;;;;;62.10;24.77;;;;;;;1.64;100.00;102512.59;1859765;77;27614;-44
2023/01/24 04:33:04;;;;;;;55.40;25.32;;;;;;;1.63;100.00;102510.12;1859645;77;25362;-44
2023/01/24 04:35:30;;;;;;;50.90;24.10;;;;;;;1.63;100.00;102512.79;1865561;76;25512;-44
2023/01/24 04:38:03;;;;;;;56.90;25.02;;;;;;;1.64;100.00;102510.45;1866058;76;25401;-44
2023/01/24 04:40:32;;;;;;;50.95;23.87;;;;;;;1.63;100.00;102508.27;1866166;76;25409;-47
2023/01/24 04:43:00;;;;;;;55.28;23.50;;;;;;;1.64;100.00;102510.45;1866031;76;27511;-47
2023/01/24 04:45:29;;;;;;;53.23;23.65;;;;;;;1.62;100.00;102513.31;1865658;76;25532;-47
2023/01/24 04:47:55;;;;;;;54.03;26.10;;;;;;;1.64;100.00;102515.78;1865596;76;25696;-43
2023/01/24 04:50:25;;;;;;;47.93;22.90;;;;;;;1.62;100.00;102519.98;1847599;76;25410;-43
2023/01/24 04:52:52;;;;;;;53.25;24.57;;;;;;;1.63;100.00;102520.80;1865559;76;25535;-43
2023/01/24 04:55:18;;;;;;;52.55;23.38;;;;;;;1.63;100.00;102514.13;1865475;76;28401;-44
2023/01/24 04:57:44;;;;;;;46.63;23.80;;;;;;;1.63;100.00;102514.94;1865425;76;25564;-43
2023/01/24 05:00:18;;;;;;;53.15;23.73;;;;;;;1.64;100.00;102516.60;1865454;76;25493;-43
2023/01/24 05:02:44;;;;;;;58.10;24.27;;;;;;;1.63;100.00;102516.27;1865531;76;25477;-43
2023/01/24 05:05:13;;;;;;;54.25;23.90;;;;;;;1.63;100.00;102508.27;1865460;76;25509;-43
2023/01/24 05:07:39;;;;;;;53.55;23.07;;;;;;;1.64;100.00;102518.45;1865388;76;28159;-43
2023/01/24 05:10:12;;;;;;;54.18;24.47;;;;;;;1.63;100.00;102514.94;1865374;76;25548;-42
2023/01/24 05:12:38;;;;;;;53.48;24.65;;;;;;;1.63;100.00;102510.94;1865503;76;25574;-44
2023/01/24 05:15:12;;;;;;;55.58;24.25;;;;;;;1.64;100.00;102513.12;1865405;76;25370;-42
2023/01/24 05:17:45;;;;;;;54.27;24.50;;;;;;;1.64;100.00;102514.45;1865546;76;25505;-43
2023/01/24 05:20:18;;;;;;;47.15;24.12;;;;;;;1.64;100.00;102513.12;1848481;76;27692;-44
2023/01/24 05:22:46;;;;;;;50.92;23.67;;;;;;;1.63;100.00;102516.27;1865501;76;25938;-43
2023/01/24 05:25:16;;;;;;;55.55;25.68;;;;;;;1.63;100.00;102512.27;1865438;76;25604;-42
2023/01/24 05:27:45;;;;;;;47.78;23.95;;;;;;;1.63;100.00;102516.27;1864962;76;25544;-43
2023/01/24 05:30:18;;;;;;;55.55;28.95;;;;;;;1.65;100.00;102513.41;1865520;76;25429;-45
2023/01/24 05:32:44;;;;;;;62.95;30.65;;;;;;;1.63;100.00;102518.13;1815523;78;27476;-43
2023/01/24 05:35:12;;;;;;;60.75;28.92;;;;;;;1.64;100.00;102521.94;1831428;77;25693;-43
2023/01/24 05:37:41;;;;;;;55.63;26.23;;;;;;;1.64;100.00;102525.94;1831575;77;25457;-43
2023/01/24 05:40:16;;;;;;;56.15;24.15;;;;;;;1.64;100.00;102538.47;1799507;78;25476;-43
2023/01/24 05:42:45;;;;;;;48.42;23.73;;;;;;;1.63;100.00;102537.62;1831638;77;25616;-44
2023/01/24 05:45:13;;;;;;;52.70;25.48;;;;;;;1.62;100.00;102545.33;1831551;78;27600;-43
2023/01/24 05:47:39;;;;;;;49.23;22.77;;;;;;;1.62;100.00;102537.32;1799029;78;26256;-42
2023/01/24 05:50:13;;;;;;;53.95;23.57;;;;;;;1.62;100.00;102541.33;1831547;77;25397;-43
2023/01/24 05:52:39;;;;;;;55.85;25.05;;;;;;;1.65;100.00;102537.42;1831595;77;25566;-43
2023/01/24 05:55:11;;;;;;;54.20;25.77;;;;;;;1.64;100.00;102539.28;1798507;78;32403;-44
2023/01/24 05:57:43;;;;;;;50.92;24.05;;;;;;;1.65;100.00;102548.94;1831524;77;27579;-44
2023/01/24 06:00:18;;;;;;;57.23;25.12;;;;;;;1.65;100.00;102548.09;1800043;78;25460;-44
2023/01/24 06:02:44;;;;;;;54.00;24.50;;;;;;;1.65;100.00;102547.61;1831570;77;25438;-44
2023/01/24 06:05:10;;;;;;;65.70;25.23;;;;;;;1.66;100.00;102552.42;1831453;78;25614;-45
2023/01/24 06:07:39;;;;;;;54.18;23.05;;;;;;;1.67;100.00;102550.09;1831532;78;25627;-44
2023/01/24 06:10:12;;;;;;;49.05;22.98;;;;;;;1.67;100.00;102553.57;1831571;78;27666;-45
2023/01/24 06:12:38;;;;;;;54.67;25.57;;;;;;;1.66;100.00;102549.24;1799976;78;26326;-44
2023/01/24 06:15:13;;;;;;;58.52;26.23;;;;;;;1.69;100.00;102554.72;1798391;78;25392;-43
2023/01/24 06:17:39;;;;;;;57.05;25.88;;;;;;;1.68;100.00;102550.38;1831515;78;25589;-45
2023/01/24 06:20:14;;;;;;;57.43;26.35;;;;;;;1.69;100.00;102550.71;1831587;77;25615;-44
2023/01/24 06:22:51;;;;;;;56.23;23.70;;;;;;;1.69;100.00;102548.05;1831558;77;28338;-45
2023/01/24 06:25:24;;;;;;;53.02;24.70;;;;;;;1.70;100.00;102546.19;1830654;77;25875;-44
2023/01/24 06:27:59;;;;;;;52.45;24.82;;;;;;;1.71;100.00;102553.19;1831521;78;25418;-44
2023/01/24 06:30:33;;;;;;;53.38;26.07;;;;;;;1.72;100.00;102554.82;1831497;78;25467;-44
2023/01/24 06:33:40;;;;;;;60.05;24.98;;;;;;;1.72;100.00;102554.33;1831501;77;25519;-44
2023/01/24 06:36:21;;;;;;;55.35;23.65;;;;;;;1.72;100.00;102553.00;1831394;77;27448;-44
2023/01/24 06:38:56;;;;;;;54.67;24.65;;;;;;;1.73;100.00;102556.48;1830125;77;25684;-44
2023/01/24 06:41:30;;;;;;;56.98;25.30;;;;;;;1.71;100.00;102562.01;1831527;77;25632;-43
2023/01/24 06:44:05;;;;;;;59.95;26.05;;;;;;;1.72;100.00;102563.67;1831533;78;25608;-43
2023/01/24 06:46:31;;;;;;;54.13;24.63;;;;;;;1.72;100.00;102570.83;1831641;77;25534;-44
2023/01/24 06:48:57;;;;;;;56.00;24.18;;;;;;;1.72;100.00;102574.34;1831533;78;27315;-44
2023/01/24 06:51:24;;;;;;;58.15;26.73;;;;;;;1.74;100.00;102582.13;1831463;77;25603;-46
2023/01/24 06:53:50;;;;;;;60.83;27.17;;;;;;;1.73;100.00;102584.50;1831446;77;25505;-44
2023/01/24 06:56:16;;;;;;;59.25;26.25;;;;;;;1.72;100.00;102586.35;1831362;78;25544;-44
2023/01/24 06:58:42;;;;;;;58.85;26.55;;;;;;;1.73;100.00;102591.17;1831532;77;25462;-48
2023/01/24 07:01:08;;;;;;;60.43;25.68;;;;;;;1.74;100.00;102590.98;1831510;78;29727;-48
2023/01/24 07:03:34;;;;;;;63.58;26.02;;;;;;;1.75;100.00;102589.13;1831342;78;25525;-47
2023/01/24 07:06:05;;;;;;;64.25;25.48;;;;;;;1.74;100.00;102586.98;1831567;77;25489;-46
2023/01/24 07:08:32;;;;;;;55.23;25.25;;;;;;;1.75;100.00;102589.13;1831491;77;25531;-44
2023/01/24 07:11:00;;;;;;;62.88;26.37;;;;;;;1.75;100.00;102588.61;1798393;78;25620;-45
2023/01/24 07:13:26;;;;;;;64.32;24.32;;;;;;;1.77;100.00;102592.42;1831472;77;28077;-44
2023/01/24 07:15:52;;;;;;;54.70;26.30;;;;;;;1.76;100.00;102584.94;1831323;78;25661;-44
2023/01/24 07:18:27;;;;;;;64.17;27.73;;;;;;;1.77;100.00;102592.42;1831479;78;25526;-45
2023/01/24 07:21:06;;;;;;;56.70;24.37;;;;;;;1.77;100.00;102589.27;1831525;77;25589;-46
2023/01/24 07:23:39;;;;;;;63.65;27.73;;;;;;;1.78;100.00;102584.74;1831709;78;25634;-44
2023/01/24 07:26:13;;;;;;;65.52;26.57;;;;;;;1.76;100.00;102583.60;1831017;77;27506;-44
2023/01/24 07:28:40;;;;;;;57.03;26.73;;;;;;;1.79;100.00;102586.41;1831425;78;25364;-46
2023/01/24 07:31:11;;;;;;;61.48;26.10;;;;;;;1.80;100.00;102586.70;1831426;77;25477;-44
2023/01/24 07:33:38;;;;;;;61.53;26.90;;;;;;;1.81;100.00;102587.03;1831361;77;25398;-45
2023/01/24 07:36:17;;;;;;;67.70;28.30;;;;;;;1.82;100.00;102594.84;1831394;78;25340;-44
2023/01/24 07:38:44;;;;;;;62.13;26.65;;;;;;;1.83;100.00;102595.14;1831505;78;27552;-44
2023/01/24 07:41:11;;;;;;;63.65;26.75;;;;;;;1.85;100.00;102590.95;1831290;77;25566;-44
2023/01/24 07:43:37;;;;;;;63.15;27.45;;;;;;;1.87;100.00;102587.57;1831591;78;25500;-45
2023/01/24 07:46:04;;;;;;;61.95;27.00;;;;;;;1.90;100.00;102586.37;1831266;77;25604;-44
2023/01/24 07:48:30;;;;;;;65.03;26.30;;;;;;;1.91;100.00;102585.33;1831316;78;25667;-45
2023/01/24 07:51:00;;;;;;;65.22;26.60;;;;;;;1.95;100.00;102590.62;1831495;77;27469;-44
2023/01/24 07:53:26;;;;;;;65.95;28.00;;;;;;;1.97;100.00;102591.24;1831513;77;27390;-45
2023/01/24 07:55:53;;;;;;;61.48;26.15;;;;;;;1.98;100.00;102589.72;1831476;77;25377;-44
2023/01/24 07:58:19;;;;;;;65.05;27.95;;;;;;;2.01;100.00;102592.00;1831464;78;25482;-49
2023/01/24 08:00:46;;;;;;;65.72;27.80;;;;;;;2.03;100.00;102586.47;1831551;77;25540;-45
2023/01/24 08:03:12;;;;;;;72.10;27.93;;;;;;;2.05;100.00;102587.91;1831471;78;27517;-46
2023/01/24 08:05:38;;;;;;;58.30;25.68;;;;;;;2.08;100.00;102589.37;1831449;78;25363;-44
2023/01/24 08:08:05;;;;;;;64.37;26.40;;;;;;;2.09;100.00;102594.20;1815480;78;25565;-45
2023/01/24 08:10:32;;;;;;;59.05;26.57;;;;;;;2.08;100.00;102584.52;1831471;78;25530;-47
2023/01/24 08:12:58;;;;;;;63.13;28.32;;;;;;;2.10;100.00;102586.52;1831526;77;25536;-44
2023/01/24 08:15:24;;;;;;;57.73;26.37;;;;;;;2.12;100.00;102590.62;1831455;78;27530;-44
2023/01/24 08:17:51;;;;;;;56.18;26.70;;;;;;;2.14;100.00;102593.91;1800493;78;25774;-47
2023/01/24 08:20:18;;;;;;;66.53;27.45;;;;;;;2.16;100.00;102598.57;1831555;78;25648;-48
2023/01/24 08:22:44;;;;;;;64.35;27.60;;;;;;;2.20;100.00;102599.81;1815629;78;25488;-45
2023/01/24 08:25:10;;;;;;;75.30;31.93;;;;;;;2.23;100.00;102600.77;1831756;78;25553;-45
2023/01/24 08:27:42;;;;;;;67.32;30.17;;;;;;;2.24;100.00;102601.06;1831635;77;27585;-46
2023/01/24 08:30:11;;;;;;;68.80;29.32;;;;;;;2.26;100.00;102602.20;1831571;77;25363;-45
2023/01/24 08:32:38;;;;;;;60.55;26.40;;;;;;;2.27;100.00;102606.53;1829327;78;25538;-45
2023/01/24 08:35:06;;;;;;;60.10;26.95;;;;;;;2.28;100.00;102598.81;1801295;78;25356;-48
2023/01/24 08:37:32;;;;;;;67.42;27.00;;;;;;;2.32;100.00;102601.43;1803402;78;25640;-44
2023/01/24 08:39:59;;;;;;;57.43;25.43;;;;;;;2.34;100.00;102602.57;1834655;77;27394;-45
2023/01/24 08:42:26;;;;;;;58.05;26.15;;;;;;;2.35;100.00;102606.38;1834496;78;25386;-48
2023/01/24 08:44:52;;;;;;;57.90;26.27;;;;;;;2.37;100.00;102604.85;1834619;77;25564;-45
2023/01/24 08:47:19;;;;;;;64.58;27.80;;;;;;;2.39;100.00;102604.95;1834545;77;25461;-44
2023/01/24 08:49:45;;;;;;;63.58;25.23;;;;;;;2.43;100.00;102599.55;1834636;77;25383;-46
2023/01/24 08:52:11;;;;;;;60.67;26.42;;;;;;;2.48;100.00;102599.45;1834575;77;27489;-47
2023/01/24 08:54:38;;;;;;;61.10;27.45;;;;;;;2.48;100.00;102592.25;1803180;78;25590;-44
2023/01/24 08:57:07;;;;;;;59.38;27.77;;;;;;;2.49;100.00;102592.58;1834616;77;25379;-45
2023/01/24 08:59:34;;;;;;;66.67;28.27;;;;;;;2.50;100.00;102594.20;1834605;78;25636;-44
2023/01/24 09:02:00;;;;;;;59.50;25.70;;;;;;;2.54;100.00;102604.02;1834626;78;25399;-44
2023/01/24 09:04:26;;;;;;;59.90;26.65;;;;;;;2.52;100.00;102602.87;1834646;77;27479;-44
2023/01/24 09:06:54;;;;;;;52.48;24.67;;;;;;;2.52;100.00;102605.55;1834509;77;25550;-45
2023/01/24 09:09:20;;;;;;;52.03;24.35;;;;;;;2.51;100.00;102602.55;1834685;78;25408;-46
2023/01/24 09:11:47;;;;;;;61.83;26.02;;;;;;;2.55;100.00;102609.13;1834598;77;25851;-43
2023/01/24 09:14:14;;;;;;;54.95;25.12;;;;;;;2.56;100.00;102608.12;1834620;77;25405;-45
2023/01/24 09:16:40;;;;;;;60.65;27.02;;;;;;;2.56;100.00;102602.78;1818318;78;27583;-47
2023/01/24 09:19:07;;;;;;;49.38;24.72;;;;;;;2.59;100.00;102600.23;1834482;78;25443;-46
2023/01/24 09:21:34;;;;;;;52.58;23.80;;;;;;;2.64;100.00;102599.13;1834611;78;25529;-45
2023/01/24 09:24:00;;;;;;;55.15;25.40;;;;;;;2.66;100.00;102592.25;1818141;78;25569;-44
2023/01/24 09:26:27;;;;;;;56.70;25.35;;;;;;;2.72;100.00;102591.44;1834650;77;25363;-45
2023/01/24 09:28:54;;;;;;;56.23;25.50;;;;;;;2.77;100.00;102587.65;1834613;77;28878;-44
2023/01/24 09:31:20;;;;;;;56.95;25.20;;;;;;;2.79;100.00;102589.11;1834608;77;25588;-44
2023/01/24 09:33:46;;;;;;;50.20;24.15;;;;;;;2.86;100.00;102582.95;1834674;78;25600;-44
2023/01/24 09:36:13;;;;;;;50.08;23.95;;;;;;;2.89;100.00;102587.89;1832672;77;26161;-45
2023/01/24 09:38:39;;;;;;;49.58;24.63;;;;;;;2.93;100.00;102585.15;1831733;78;25537;-45
2023/01/24 09:41:16;;;;;;;53.33;24.92;;;;;;;2.96;100.00;102590.06;1831659;78;28170;-45
2023/01/24 09:43:54;;;;;;;47.73;23.52;;;;;;;3.00;100.00;102595.34;1831560;78;25621;-44
2023/01/24 09:46:46;;;;;;;51.65;24.95;;;;;;;3.03;100.00;102594.09;1831634;78;25602;-44
2023/01/24 09:49:25;;;;;;;54.80;24.98;;;;;;;3.05;100.00;102590.70;1831622;78;25515;-44
2023/01/24 09:51:54;;;;;;;54.55;25.50;;;;;;;3.06;100.00;102592.36;1832463;77;25397;-44
2023/01/24 09:54:41;;;;;;;52.43;26.23;;;;;;;3.05;100.00;102590.70;1831710;78;28070;-45
2023/01/24 09:57:15;;;;;;;51.92;24.90;;;;;;;3.03;100.00;102594.95;1831183;77;25773;-46
2023/01/24 09:59:46;;;;;;;57.95;25.75;;;;;;;3.01;100.00;102593.48;1830760;77;25409;-44
2023/01/24 10:02:20;;;;;;;55.25;25.52;;;;;;;3.01;100.00;102596.16;1831592;77;25536;-43
2023/01/24 10:04:49;;;;;;;55.00;28.32;;;;;;;3.02;100.00;102598.63;1831604;78;25574;-44
2023/01/24 10:07:32;;;;;;;63.78;29.55;;;;;;;3.05;100.00;102594.72;1831584;77;27452;-44
2023/01/24 10:10:13;;;;;;;60.65;28.85;;;;;;;3.07;100.00;102602.86;1831380;77;25421;-45
2023/01/24 10:13:03;;;;;;;61.95;29.32;;;;;;;3.09;100.00;102592.78;1831271;77;25523;-46
2023/01/24 10:16:08;;;;;;;56.37;28.05;;;;;;;3.08;100.00;102588.48;1831504;77;25466;-45
2023/01/24 10:19:04;;;;;;;57.45;27.42;;;;;;;3.06;100.00;102590.50;1831571;77;25588;-44
2023/01/24 10:21:47;;;;;;;56.08;27.42;;;;;;;3.06;100.00;102583.00;1831577;77;27905;-44
2023/01/24 10:24:19;;;;;;;58.45;29.72;;;;;;;3.07;100.00;102592.69;1831608;77;25813;-43
2023/01/24 10:26:51;;;;;;;59.25;29.57;;;;;;;3.08;100.00;102591.16;1831435;77;25443;-44
2023/01/24 10:29:29;;;;;;;59.45;29.15;;;;;;;3.10;100.00;102589.59;1800545;78;25817;-44
2023/01/24 10:32:13;;;;;;;65.85;31.82;;;;;;;3.12;100.00;102588.89;1830284;77;25385;-45
2023/01/24 10:34:50;;;;;;;71.30;32.25;;;;;;;3.14;100.00;102588.98;1831517;78;27503;-45
2023/01/24 10:37:31;;;;;;;72.47;34.05;;;;;;;3.17;100.00;102590.45;1800438;78;25584;-44
2023/01/24 10:40:00;;;;;;;72.67;35.80;;;;;;;3.20;100.00;102589.20;1831595;78;25524;-43
2023/01/24 10:42:31;;;;;;;72.30;34.60;;;;;;;3.21;100.00;102597.02;1831501;78;26194;-43
2023/01/24 10:45:03;;;;;;;81.70;37.73;;;;;;;3.21;100.00;102586.84;1831588;77;25386;-48
2023/01/24 10:47:56;;;;;;;83.92;37.50;;;;;;;3.20;99.85;102587.86;1829835;77;27563;-45
2023/01/24 10:50:23;;;;;;;72.60;34.80;;;;;;;3.22;100.00;102583.97;1831396;77;25518;-44
2023/01/24 10:52:50;;;;;;;72.15;34.05;;;;;;;3.25;100.00;102585.41;1831419;78;25358;-46
2023/01/24 10:55:35;;;;;;;72.50;34.15;;;;;;;3.26;99.94;102587.88;1831446;78;25535;-48
2023/01/24 10:58:21;;;;;;;66.53;32.63;;;;;;;3.25;99.58;102586.25;1831533;78;25567;-45
2023/01/24 11:00:57;;;;;;;64.95;31.77;;;;;;;3.25;99.67;102582.23;1831549;77;27359;-45
2023/01/24 11:03:34;;;;;;;68.83;32.60;;;;;;;3.27;99.80;102582.84;1830126;77;25453;-43
2023/01/24 11:06:00;;;;;;;58.15;30.52;;;;;;;3.28;99.70;102583.14;1831431;77;25608;-44
2023/01/24 11:08:36;;;;;;;63.20;30.85;;;;;;;3.30;99.86;102578.44;1831495;77;25456;-44
2023/01/24 11:11:14;;;;;;;63.10;31.20;;;;;;;3.31;99.81;102572.04;1831587;78;25387;-48
2023/01/24 11:13:41;;;;;;;58.17;29.45;;;;;;;3.34;99.87;102569.48;1831008;77;27507;-43
2023/01/24 11:16:19;;;;;;;60.45;29.27;;;;;;;3.37;99.70;102571.73;1831396;78;25449;-43
2023/01/24 11:18:56;;;;;;;50.70;28.50;;;;;;;3.39;99.62;102571.52;1831516;77;25545;-44
2023/01/24 11:21:23;;;;;;;58.33;29.37;;;;;;;3.39;99.39;102569.69;1800592;78;25545;-46
2023/01/24 11:24:06;;;;;;;61.13;27.67;;;;;;;3.41;99.33;102568.97;1831553;77;25612;-46
2023/01/24 11:26:41;;;;;;;62.78;32.78;;;;;;;3.41;99.02;102580.19;1831507;78;27586;-43
2023/01/24 11:29:18;;;;;;;60.43;31.23;;;;;;;3.40;98.99;102575.33;1828472;77;25712;-45
2023/01/24 11:31:57;;;;;;;67.62;36.60;;;;;;;3.45;99.76;102572.05;1831506;77;25535;-42
2023/01/24 11:34:43;;;;;;;68.50;37.93;;;;;;;3.48;99.67;102572.46;1831665;78;25636;-45
2023/01/24 11:37:43;;;;;;;65.15;30.08;;;;;;;3.52;99.51;102576.39;1815513;78;25427;-44
2023/01/24 11:40:36;;;;;;;60.50;28.47;;;;;;;3.55;99.48;102568.45;1825652;78;27490;-46
2023/01/24 11:43:20;;;;;;;56.58;26.85;;;;;;;3.53;98.60;102579.36;1825359;78;25636;-49
2023/01/24 11:46:04;;;;;;;66.90;32.42;;;;;;;3.50;98.11;102566.91;1825415;78;25377;-45
2023/01/24 11:48:54;;;;;;;61.35;31.97;;;;;;;3.53;98.91;102567.84;1789720;78;25833;-45
2023/01/24 11:51:44;;;;;;;53.80;27.10;;;;;;;3.55;99.30;102565.25;1825269;78;25408;-45
2023/01/24 11:54:37;;;;;;;54.40;26.73;;;;;;;3.55;98.29;102565.78;1824654;78;27449;-45
2023/01/24 11:57:15;;;;;;;59.85;27.02;;;;;;;3.51;98.05;102561.36;1825304;78;25738;-45
2023/01/24 12:00:03;;;;;;;55.52;26.82;;;;;;;3.49;98.35;102562.08;1824736;78;25537;-45
2023/01/24 12:03:01;;;;;;;60.00;28.85;;;;;;;3.51;98.17;102567.23;1825549;78;25499;-44
2023/01/24 12:05:57;;;;;;;52.67;25.15;;;;;;;3.46;97.75;102557.66;1825630;78;25610;-44
2023/01/24 12:08:44;;;;;;;55.83;26.68;;;;;;;3.44;97.70;102549.83;1825603;78;27092;-45